createdAt,value
2024-05-09T00:00:06.401Z,13.59
2024-05-09T00:03:10.157Z,13.74
2024-05-09T00:06:13.877Z,13.86
2024-05-09T00:09:16.342Z,13.98
2024-05-09T00:12:21.496Z,14.14
2024-05-09T00:15:23.859Z,14.18
2024-05-09T00:18:26.444Z,14.23
2024-05-09T00:21:28.822Z,14.34
2024-05-09T00:24:33.386Z,14.31
2024-05-09T00:27:38.425Z,14.30
2024-05-09T00:30:41.618Z,14.33
2024-05-09T00:33:44.149Z,14.34
2024-05-09T00:36:47.312Z,14.40
2024-05-09T00:39:49.493Z,14.36
2024-05-09T00:42:54.256Z,14.26
2024-05-09T00:45:57.654Z,14.35
2024-05-09T00:48:59.937Z,14.35
2024-05-09T00:52:02.836Z,14.41
2024-05-09T00:55:06.801Z,14.47
2024-05-09T00:58:16.348Z,14.53
2024-05-09T01:01:23.306Z,14.52
2024-05-09T01:04:25.535Z,14.55
2024-05-09T01:07:28.576Z,14.56
2024-05-09T01:10:34.288Z,14.64
2024-05-09T01:13:40.361Z,14.63
2024-05-09T01:16:42.813Z,14.71
2024-05-09T01:19:45.586Z,14.63
2024-05-09T01:22:48.156Z,14.63
2024-05-09T01:25:53.089Z,14.50
2024-05-09T01:28:55.437Z,14.59
2024-05-09T01:32:01.378Z,14.49
2024-05-09T01:35:03.835Z,14.64
2024-05-09T01:38:06.448Z,14.68
2024-05-09T01:41:11.544Z,14.67
2024-05-09T01:44:13.891Z,14.68
2024-05-09T01:47:17.401Z,14.53
2024-05-09T01:50:28.954Z,14.61
2024-05-09T01:53:39.257Z,14.60
2024-05-09T01:56:44.765Z,14.56
2024-05-09T01:59:46.744Z,14.60
2024-05-09T02:02:49.223Z,14.55
2024-05-09T02:05:51.524Z,14.56
2024-05-09T02:08:53.878Z,14.64
2024-05-09T02:12:00.080Z,14.56
2024-05-09T02:15:02.428Z,14.42
2024-05-09T02:18:06.041Z,14.45
2024-05-09T02:21:09.320Z,14.29
2024-05-09T02:24:12.105Z,14.33
2024-05-09T02:27:17.064Z,14.39
2024-05-09T02:30:26.408Z,14.24
2024-05-09T02:33:38.478Z,14.31
2024-05-09T02:36:40.840Z,14.33
2024-05-09T02:39:44.074Z,14.17
2024-05-09T02:42:49.000Z,14.13
2024-05-09T02:45:52.137Z,14.30
2024-05-09T02:48:54.472Z,14.14
2024-05-09T02:51:56.716Z,14.06
2024-05-09T02:54:58.901Z,14.15
2024-05-09T02:58:04.349Z,13.93
2024-05-09T03:01:06.582Z,14.20
2024-05-09T03:04:09.509Z,14.45
2024-05-09T03:07:12.125Z,14.31
2024-05-09T03:10:22.236Z,13.90
2024-05-09T03:13:30.515Z,14.18
2024-05-09T03:16:38.377Z,14.05
2024-05-09T03:19:40.960Z,14.04
2024-05-09T03:22:43.445Z,13.90
2024-05-09T03:25:45.823Z,13.95
2024-05-09T03:28:50.723Z,13.80
2024-05-09T03:31:53.112Z,14.09
2024-05-09T03:34:55.981Z,13.98
2024-05-09T03:37:58.245Z,13.65
2024-05-09T03:41:00.875Z,13.92
2024-05-09T03:44:06.044Z,13.93
2024-05-09T03:47:08.383Z,13.97
2024-05-09T03:50:18.298Z,13.98
2024-05-09T03:53:28.411Z,14.09
2024-05-09T03:56:31.112Z,14.30
2024-05-09T03:59:37.124Z,14.22
2024-05-09T04:02:42.820Z,14.20
2024-05-09T04:05:45.252Z,14.23
2024-05-09T04:08:47.590Z,14.33
2024-05-09T04:11:49.845Z,14.38
2024-05-09T04:14:55.651Z,14.42
2024-05-09T04:17:58.329Z,14.41
2024-05-09T04:21:00.709Z,14.73
2024-05-09T04:24:02.814Z,14.70
2024-05-09T04:27:06.036Z,14.76
2024-05-09T04:30:18.549Z,14.88
2024-05-09T04:33:24.287Z,14.82
2024-05-09T04:36:26.723Z,14.71
2024-05-09T04:39:29.268Z,14.82
2024-05-09T04:42:31.640Z,14.91
2024-05-09T04:45:36.503Z,15.01
2024-05-09T04:48:39.833Z,14.77
2024-05-09T04:51:42.358Z,14.99
2024-05-09T04:54:44.624Z,14.95
2024-05-09T04:57:47.636Z,14.94
2024-05-09T05:00:52.482Z,14.99
2024-05-09T05:03:56.242Z,14.82
2024-05-09T05:07:02.131Z,14.78
2024-05-09T05:10:05.969Z,14.82
2024-05-09T05:13:20.600Z,14.92
2024-05-09T05:16:26.501Z,14.97
2024-05-09T05:19:29.814Z,14.93
2024-05-09T05:22:32.113Z,15.14
2024-05-09T05:25:34.670Z,15.19
2024-05-09T05:28:36.921Z,15.08
2024-05-09T05:31:41.894Z,15.27
2024-05-09T05:34:44.658Z,15.24
2024-05-09T05:37:47.072Z,15.27
2024-05-09T05:40:49.358Z,15.26
2024-05-09T05:43:52.635Z,15.33
2024-05-09T05:46:57.550Z,15.17
2024-05-09T05:49:59.930Z,15.29
2024-05-09T05:53:03.552Z,15.32
2024-05-09T05:56:06.275Z,15.50
2024-05-09T05:59:08.623Z,15.45
2024-05-09T06:02:14.374Z,15.50
2024-05-09T06:05:16.629Z,14.38
2024-05-09T06:08:19.034Z,14.13
2024-05-09T06:11:21.610Z,13.94
2024-05-09T06:14:24.150Z,13.83
2024-05-09T06:17:29.388Z,14.04
2024-05-09T06:20:35.970Z,13.94
2024-05-09T06:23:45.880Z,13.92
2024-05-09T06:26:48.126Z,14.33
2024-05-09T06:29:50.562Z,14.27
2024-05-09T06:32:55.605Z,14.45
2024-05-09T06:35:59.761Z,15.04
2024-05-09T06:39:02.583Z,15.28
2024-05-09T06:42:04.964Z,15.40
2024-05-09T06:45:07.841Z,15.55
2024-05-09T06:48:12.888Z,15.76
2024-05-09T06:51:15.285Z,16.34
2024-05-09T06:54:18.545Z,16.60
2024-05-09T06:57:21.642Z,16.88
2024-05-09T07:00:30.908Z,17.10
2024-05-09T07:03:44.501Z,16.41
2024-05-09T07:06:47.391Z,16.20
2024-05-09T07:09:49.680Z,16.10
2024-05-09T07:12:51.821Z,16.02
2024-05-09T07:15:54.144Z,16.06
2024-05-09T07:18:59.186Z,16.25
2024-05-09T07:22:01.538Z,17.26
2024-05-09T07:25:04.841Z,17.11
2024-05-09T07:28:11.483Z,16.72
2024-05-09T07:31:13.697Z,16.66
2024-05-09T07:34:19.263Z,16.58
2024-05-09T07:37:21.567Z,16.70
2024-05-09T07:40:32.918Z,16.67
2024-05-09T07:43:38.513Z,17.23
2024-05-09T07:47:47.731Z,17.56
2024-05-09T07:52:22.663Z,17.16
2024-05-09T07:53:40.000Z,17.33
2024-05-09T07:56:46.959Z,17.80
2024-05-09T07:59:50.341Z,18.01
2024-05-09T08:02:52.490Z,17.81
2024-05-09T08:05:57.959Z,17.58
2024-05-09T08:09:05.174Z,17.27
2024-05-09T08:12:13.054Z,18.01
2024-05-09T08:15:15.373Z,17.62
2024-05-09T08:18:18.429Z,18.24
2024-05-09T08:21:23.272Z,17.97
2024-05-09T08:24:26.368Z,18.01
2024-05-09T08:27:28.730Z,18.50
2024-05-09T08:30:36.704Z,18.57
2024-05-09T08:33:44.758Z,18.49
2024-05-09T08:36:50.435Z,18.18
2024-05-09T08:39:52.821Z,18.97
2024-05-09T08:42:57.685Z,18.64
2024-05-09T08:46:02.434Z,19.01
2024-05-09T08:49:04.922Z,18.81
2024-05-09T08:52:11.091Z,19.28
2024-05-09T08:55:13.860Z,18.91
2024-05-09T08:58:18.483Z,19.19
2024-05-09T09:01:22.336Z,19.42
2024-05-09T09:04:25.570Z,18.63
2024-05-09T09:07:33.606Z,19.55
2024-05-09T09:10:36.963Z,18.96
2024-05-09T09:13:40.323Z,19.33
2024-05-09T09:16:42.598Z,19.22
2024-05-09T09:19:45.331Z,19.33
2024-05-09T09:22:50.828Z,19.43
2024-05-09T09:25:54.278Z,19.34
2024-05-09T09:29:00.378Z,19.86
2024-05-09T09:32:04.960Z,19.56
2024-05-09T09:35:08.351Z,19.09
2024-05-09T09:38:18.436Z,19.55
2024-05-09T09:41:26.216Z,19.51
2024-05-09T09:44:28.996Z,20.22
2024-05-09T09:47:32.461Z,20.12
2024-05-09T09:50:36.008Z,19.67
2024-05-09T09:53:42.721Z,19.76
2024-05-09T09:56:47.750Z,20.00
2024-05-09T09:59:51.357Z,19.68
2024-05-09T10:02:54.141Z,20.67
2024-05-09T10:05:57.338Z,20.29
2024-05-09T10:09:03.136Z,19.80
2024-05-09T10:12:12.148Z,20.29
2024-05-09T10:15:20.167Z,20.64
2024-05-09T10:18:30.205Z,20.41
2024-05-09T10:21:33.653Z,20.78
2024-05-09T10:25:05.571Z,20.35
2024-05-09T10:28:11.912Z,20.80
2024-05-09T10:31:16.305Z,20.33
2024-05-09T10:34:19.399Z,20.34
2024-05-09T10:37:22.556Z,20.47
2024-05-09T10:40:31.362Z,20.99
2024-05-09T10:43:38.558Z,20.62
2024-05-09T10:46:41.454Z,21.14
2024-05-09T10:49:43.999Z,20.49
2024-05-09T10:52:46.234Z,21.02
2024-05-09T10:55:58.833Z,21.10
2024-05-09T10:59:03.906Z,21.15
2024-05-09T11:02:06.884Z,21.74
2024-05-09T11:05:09.564Z,21.17
2024-05-09T11:08:12.613Z,21.05
2024-05-09T11:11:18.787Z,21.16
2024-05-09T11:14:20.971Z,21.27
2024-05-09T11:17:23.900Z,21.06
2024-05-09T11:20:35.508Z,21.46
2024-05-09T11:23:38.521Z,21.39
2024-05-09T11:26:43.512Z,21.44
2024-05-09T11:29:46.393Z,21.61
2024-05-09T11:32:49.533Z,21.82
2024-05-09T11:35:51.770Z,21.93
2024-05-09T11:38:54.028Z,21.18
2024-05-09T11:41:58.876Z,21.54
2024-05-09T11:45:01.082Z,21.72
2024-05-09T11:48:04.232Z,21.77
2024-05-09T11:51:06.544Z,21.92
2024-05-09T11:54:08.704Z,21.60
2024-05-09T11:57:14.504Z,22.62
2024-05-09T12:00:24.589Z,21.81
2024-05-09T12:03:31.871Z,21.63
2024-05-09T12:06:34.263Z,21.51
2024-05-09T12:09:36.521Z,21.10
2024-05-09T12:12:41.440Z,21.50
2024-05-09T12:15:43.718Z,21.74
2024-05-09T12:18:46.809Z,21.43
2024-05-09T12:21:49.288Z,22.78
2024-05-09T12:24:51.636Z,23.13
2024-05-09T12:27:57.498Z,22.88
2024-05-09T12:30:59.787Z,22.01
2024-05-09T12:34:02.676Z,23.28
2024-05-09T12:37:05.225Z,22.62
2024-05-09T12:40:15.833Z,22.34
2024-05-09T12:43:23.583Z,22.52
2024-05-09T12:46:25.948Z,22.50
2024-05-09T12:49:28.472Z,22.67
2024-05-09T12:52:30.815Z,23.21
2024-05-09T12:55:41.161Z,22.64
2024-05-09T12:58:53.836Z,23.11
2024-05-09T13:01:58.792Z,22.78
2024-05-09T13:05:03.005Z,22.41
2024-05-09T13:08:06.254Z,23.11
2024-05-09T13:11:08.835Z,23.47
2024-05-09T13:14:14.190Z,23.45
2024-05-09T13:17:16.751Z,22.12
2024-05-09T13:20:26.326Z,22.56
2024-05-09T13:23:34.957Z,22.53
2024-05-09T13:26:37.249Z,22.55
2024-05-09T13:29:44.202Z,22.78
2024-05-09T13:32:47.680Z,22.71
2024-05-09T13:35:51.076Z,23.17
2024-05-09T13:38:56.872Z,22.79
2024-05-09T13:41:58.997Z,23.04
2024-05-09T13:45:04.662Z,22.96
2024-05-09T13:48:10.002Z,23.14
2024-05-09T13:51:12.583Z,23.06
2024-05-09T13:54:16.661Z,23.08
2024-05-09T13:57:19.745Z,23.11
2024-05-09T14:03:30.521Z,23.44
2024-05-09T14:06:33.505Z,23.46
2024-05-09T14:09:36.094Z,23.38
2024-05-09T14:12:38.724Z,22.96
2024-05-09T14:15:43.820Z,23.06
2024-05-09T14:18:46.155Z,22.85
2024-05-09T14:21:48.757Z,22.56
2024-05-09T14:24:51.056Z,22.68
2024-05-09T14:27:53.676Z,22.81
2024-05-09T14:30:58.629Z,22.52
2024-05-09T14:34:01.721Z,22.62
2024-05-09T14:37:04.428Z,22.44
2024-05-09T14:40:14.692Z,22.39
2024-05-09T14:43:23.526Z,22.34
2024-05-09T14:46:28.966Z,22.64
2024-05-09T14:49:31.474Z,22.63
2024-05-09T14:52:34.217Z,22.48
2024-05-09T14:55:37.742Z,22.39
2024-05-09T14:58:41.461Z,22.49
2024-05-09T15:01:46.571Z,22.25
2024-05-09T15:04:49.501Z,22.34
2024-05-09T15:07:51.769Z,22.24
2024-05-09T15:10:54.599Z,22.14
2024-05-09T15:13:56.862Z,21.55
2024-05-09T15:17:02.000Z,22.08
2024-05-09T15:20:09.192Z,22.02
2024-05-09T15:23:11.823Z,22.13
2024-05-09T15:26:14.466Z,22.30
2024-05-09T15:29:16.711Z,22.31
2024-05-09T15:32:21.893Z,21.92
2024-05-09T15:35:23.784Z,21.92
2024-05-09T15:38:27.865Z,22.15
2024-05-09T15:41:30.076Z,22.06
2024-05-09T15:44:34.217Z,21.93
2024-05-09T15:47:39.331Z,21.67
2024-05-09T15:50:42.752Z,22.11
2024-05-09T15:53:45.277Z,22.21
2024-05-09T15:56:49.508Z,22.15
2024-05-09T15:59:52.122Z,21.67
2024-05-09T16:02:57.131Z,21.35
2024-05-09T16:05:59.586Z,21.73
2024-05-09T16:09:02.193Z,20.89
2024-05-09T16:12:05.217Z,21.43
2024-05-09T16:15:08.622Z,20.97
2024-05-09T16:18:13.748Z,21.09
2024-05-09T16:21:15.710Z,21.25
2024-05-09T16:24:17.839Z,21.10
2024-05-09T16:27:20.040Z,21.09
2024-05-09T16:30:28.305Z,21.06
2024-05-09T16:33:40.567Z,21.00
2024-05-09T16:36:44.102Z,20.87
2024-05-09T16:39:46.511Z,20.75
2024-05-09T16:42:49.070Z,20.33
2024-05-09T16:45:51.435Z,20.38
2024-05-09T16:48:56.822Z,20.25
2024-05-09T16:51:59.230Z,19.96
2024-05-09T16:55:02.231Z,20.13
2024-05-09T16:58:05.346Z,19.35
2024-05-09T17:01:07.799Z,19.49
2024-05-09T17:04:13.918Z,19.69
2024-05-09T17:07:16.710Z,19.49
2024-05-09T17:10:26.780Z,19.24
2024-05-09T17:13:39.336Z,18.72
2024-05-09T17:16:41.952Z,18.56
2024-05-09T17:19:48.216Z,18.03
2024-05-09T17:22:50.449Z,17.93
2024-05-09T17:25:52.700Z,18.03
2024-05-09T17:28:54.997Z,17.76
2024-05-09T17:31:57.859Z,17.28
2024-05-09T17:35:03.094Z,17.28
2024-05-09T17:38:05.539Z,16.94
2024-05-09T17:41:07.949Z,16.75
2024-05-09T17:44:10.321Z,16.48
2024-05-09T17:47:12.930Z,16.49
2024-05-09T17:50:24.550Z,16.16
2024-05-09T17:53:33.213Z,16.15
2024-05-09T17:56:35.870Z,16.09
2024-05-09T17:59:38.315Z,15.87
2024-05-09T18:02:40.875Z,15.93
2024-05-09T18:05:46.024Z,16.31
2024-05-09T18:08:48.339Z,16.24
2024-05-09T18:11:50.920Z,16.09
2024-05-09T18:14:53.060Z,15.92
2024-05-09T18:17:55.408Z,15.72
2024-05-09T18:21:00.450Z,16.16
2024-05-09T18:24:02.672Z,16.33
2024-05-09T18:27:06.403Z,15.66
2024-05-09T18:30:23.787Z,14.80
2024-05-09T18:33:30.849Z,14.59
2024-05-09T18:36:35.928Z,14.67
2024-05-09T18:39:39.967Z,14.37
2024-05-09T18:42:42.601Z,14.47
2024-05-09T18:45:46.019Z,14.70
2024-05-09T18:48:48.470Z,14.47
2024-05-09T18:51:53.482Z,14.58
2024-05-09T18:54:55.832Z,14.40
2024-05-09T18:57:58.072Z,14.55
2024-05-09T19:01:01.929Z,14.56
2024-05-09T19:04:05.027Z,14.46
2024-05-09T19:07:10.418Z,14.38
2024-05-09T19:10:22.157Z,14.46
2024-05-09T19:13:28.048Z,14.34
2024-05-09T19:16:31.173Z,14.16
2024-05-09T19:19:33.950Z,13.96
2024-05-09T19:22:39.149Z,13.75
2024-05-09T19:25:41.794Z,14.07
2024-05-09T19:28:44.068Z,14.22
2024-05-09T19:31:46.747Z,13.95
2024-05-09T19:34:49.099Z,13.69
2024-05-09T19:37:54.213Z,13.76
2024-05-09T19:40:56.476Z,13.98
2024-05-09T19:43:58.843Z,13.90
2024-05-09T19:47:01.452Z,13.93
2024-05-09T19:50:06.327Z,13.86
2024-05-09T19:53:16.261Z,13.37
2024-05-09T19:56:18.504Z,13.36
2024-05-09T19:59:20.622Z,13.58
2024-05-09T20:02:23.654Z,13.65
2024-05-09T20:05:26.918Z,14.09
2024-05-09T20:08:33.286Z,14.35
2024-05-09T20:11:37.998Z,14.44
2024-05-09T20:14:40.612Z,14.46
2024-05-09T20:17:42.777Z,14.60
2024-05-09T20:20:45.669Z,14.46
2024-05-09T20:23:51.160Z,14.54
2024-05-09T20:26:53.390Z,14.58
2024-05-09T20:29:56.516Z,14.47
2024-05-09T20:32:59.006Z,14.34
2024-05-09T20:36:02.468Z,14.24
2024-05-09T20:39:07.633Z,14.18
2024-05-09T20:42:09.874Z,13.92
2024-05-09T20:45:12.116Z,13.94
2024-05-09T20:48:14.583Z,14.01
2024-05-09T20:51:16.750Z,13.94
2024-05-09T20:54:21.600Z,13.94
2024-05-09T20:57:24.517Z,13.86
2024-05-09T21:00:35.156Z,13.92
2024-05-09T21:03:42.150Z,13.71
2024-05-09T21:06:44.471Z,13.52
2024-05-09T21:09:49.324Z,13.41
2024-05-09T21:12:52.355Z,13.33
2024-05-09T21:15:54.654Z,13.34
2024-05-09T21:18:57.403Z,13.12
2024-05-09T21:21:59.618Z,13.15
2024-05-09T21:25:05.625Z,13.22
2024-05-09T21:28:08.305Z,13.14
2024-05-09T21:31:10.691Z,13.03
2024-05-09T21:34:13.307Z,13.01
2024-05-09T21:37:15.647Z,12.93
2024-05-09T21:40:30.690Z,12.83
2024-05-09T21:43:37.774Z,12.61
2024-05-09T21:46:40.123Z,12.61
2024-05-09T21:49:43.239Z,12.54
2024-05-09T21:52:45.438Z,12.69
2024-05-09T21:55:50.916Z,12.72
2024-05-09T21:58:53.176Z,12.70
2024-05-09T22:01:55.705Z,12.81
2024-05-09T22:04:58.571Z,12.96
2024-05-09T22:08:01.076Z,12.94
2024-05-09T22:11:07.205Z,12.89
2024-05-09T22:14:09.356Z,12.89
2024-05-09T22:17:12.311Z,12.80
2024-05-09T22:20:21.918Z,12.72
2024-05-09T22:23:31.179Z,12.63
2024-05-09T22:26:36.487Z,12.47
2024-05-09T22:29:38.873Z,12.49
2024-05-09T22:32:41.229Z,12.46
2024-05-09T22:35:43.587Z,12.44
2024-05-09T22:38:45.620Z,12.35
2024-05-09T22:41:50.916Z,12.32
2024-05-09T22:44:52.990Z,12.20
2024-05-09T22:47:55.415Z,12.31
2024-05-09T22:50:57.688Z,12.24
2024-05-09T22:54:01.315Z,12.20
2024-05-09T22:57:06.229Z,12.09
2024-05-09T23:00:12.420Z,12.07
2024-05-09T23:03:18.941Z,12.02
2024-05-09T23:06:21.178Z,12.04
2024-05-09T23:09:24.263Z,12.13
2024-05-09T23:12:29.090Z,12.17
2024-05-09T23:15:32.119Z,12.29
2024-05-09T23:18:34.615Z,12.38
2024-05-09T23:21:39.039Z,12.43
2024-05-09T23:24:41.388Z,12.38
2024-05-09T23:27:46.335Z,12.22
2024-05-09T23:30:48.606Z,12.13
2024-05-09T23:33:51.214Z,12.00
2024-05-09T23:36:53.610Z,11.92
2024-05-09T23:39:56.607Z,11.80
2024-05-09T23:43:01.434Z,11.60
2024-05-09T23:46:04.243Z,11.45
2024-05-09T23:49:06.405Z,11.27
2024-05-09T23:52:08.679Z,11.12
2024-05-09T23:55:11.075Z,11.16
2024-05-09T23:58:16.012Z,11.23
